Seguin, TX

1:09 PM CDT on October 31, 2014 (GMT -0500)
San Marcos Municipal | Change Station
CLOSE
Current Station
Airport
Location: San Marcos,
Elevation: 597 ft
Nearby Weather Stations

Elev 597 ft 29.90 °N, 97.87 °W | Updated 19 minutes ago

Clear
Clear
75 °F
Feels Like 75 °F
N
20
Wind Variable Wind from NNE
Gusts 26 mph

Today
High -- | Low -- °F
--% Chance of Precip.
Yesterday
High -- | Low -- °F
Precip. -- in
7:44 AM 6:46 PM
First Quarter, 57% visible
Pressure 30.28 in
Visibility 10.0 miles
Clouds Clear
Dew Point 45 °F
Humidity 34%
Rainfall 0.00 in
Snow Depth Not available.
UV 6 out of 12
Pollen 4.80 out of 12
Air Quality Not available.
Flu Activity Not available.
METAR KHYI 311750Z 02017G23KT 10SM CLR 24/07 A3028

More Conditions Fewer Conditions

Pressure 30.28 in
Visibility 10.0 miles
Clouds Clear
Dew Point 45 °F
Humidity 34%
Rainfall 0.00 in
Snow Depth Not available.
UV 6 out of 12
Pollen 4.80 out of 12
Air Quality Not available.
Flu Activity Not available.
METAR KHYI 311750Z 02017G23KT 10SM CLR 24/07 A3028

More Conditions Fewer Conditions

10-Day Weather Forecast

Almanac

Astronomy

Oct. 31, 2014 Rise Set
Actual Time
Civil Twilight
Nautical Twilight
Astronomical Twilight
Moon
Length of Visible Light
Length of Day
Tomorrow will be .
, % of the Moon is Illuminated

Today's Extremes

State Highs State Lows

Community

WunderPhotos

Upload Photos

1,766,679 photos uploaded!

WunderBlogs® & News

Nearby

Air Quality

  Air Quality AQ Index Pollutant
Not available.

Snow Depth

Station Depth Elevation

Earthquake Activity

City Distance Mag. Time & Date
Minimum magnitude displayed is 2.5.

Coastal Water Temperatures

Place Temperature

Nearby Weather Stations